sensor_id;sensor_type;location;lat;lon;timestamp;P1;durP1;ratioP1;P2;durP2;ratioP2
55292;SDS011;41157;53.560;10.098;2022-11-15T00:00:10;36.00;;;23.60;;
55292;SDS011;41157;53.560;10.098;2022-11-15T00:02:36;38.60;;;24.37;;
55292;SDS011;41157;53.560;10.098;2022-11-15T00:05:02;38.70;;;24.63;;
55292;SDS011;41157;53.560;10.098;2022-11-15T00:07:28;37.57;;;23.30;;
55292;SDS011;41157;53.560;10.098;2022-11-15T00:09:54;35.60;;;23.90;;
55292;SDS011;41157;53.560;10.098;2022-11-15T00:12:20;40.57;;;24.80;;
55292;SDS011;41157;53.560;10.098;2022-11-15T00:14:46;38.20;;;23.73;;
55292;SDS011;41157;53.560;10.098;2022-11-15T00:17:12;37.93;;;24.57;;
55292;SDS011;41157;53.560;10.098;2022-11-15T00:19:38;31.37;;;23.10;;
55292;SDS011;41157;53.560;10.098;2022-11-15T00:22:04;36.40;;;23.40;;
55292;SDS011;41157;53.560;10.098;2022-11-15T00:24:30;36.30;;;23.33;;
55292;SDS011;41157;53.560;10.098;2022-11-15T00:26:56;35.97;;;23.63;;
55292;SDS011;41157;53.560;10.098;2022-11-15T00:29:22;37.50;;;23.37;;
55292;SDS011;41157;53.560;10.098;2022-11-15T00:31:48;38.80;;;23.70;;
55292;SDS011;41157;53.560;10.098;2022-11-15T00:34:14;33.80;;;21.80;;
55292;SDS011;41157;53.560;10.098;2022-11-15T00:36:40;34.40;;;22.87;;
55292;SDS011;41157;53.560;10.098;2022-11-15T00:39:06;34.77;;;22.77;;
55292;SDS011;41157;53.560;10.098;2022-11-15T00:41:32;33.77;;;22.90;;
55292;SDS011;41157;53.560;10.098;2022-11-15T00:43:58;34.30;;;22.50;;
55292;SDS011;41157;53.560;10.098;2022-11-15T00:46:24;37.57;;;23.20;;
55292;SDS011;41157;53.560;10.098;2022-11-15T00:48:50;36.33;;;22.90;;
55292;SDS011;41157;53.560;10.098;2022-11-15T00:51:17;34.27;;;24.00;;
55292;SDS011;41157;53.560;10.098;2022-11-15T00:53:43;35.40;;;22.80;;
55292;SDS011;41157;53.560;10.098;2022-11-15T00:56:09;37.83;;;23.60;;
55292;SDS011;41157;53.560;10.098;2022-11-15T00:58:35;37.30;;;23.10;;
55292;SDS011;41157;53.560;10.098;2022-11-15T01:01:11;34.23;;;22.10;;
55292;SDS011;41157;53.560;10.098;2022-11-15T01:03:38;34.13;;;23.77;;
55292;SDS011;41157;53.560;10.098;2022-11-15T01:06:05;33.03;;;22.53;;
55292;SDS011;41157;53.560;10.098;2022-11-15T01:08:31;37.63;;;23.97;;
55292;SDS011;41157;53.560;10.098;2022-11-15T01:11:01;34.83;;;22.40;;
55292;SDS011;41157;53.560;10.098;2022-11-15T01:13:29;31.60;;;21.80;;
55292;SDS011;41157;53.560;10.098;2022-11-15T01:15:55;34.87;;;22.50;;
55292;SDS011;41157;53.560;10.098;2022-11-15T01:18:21;34.60;;;22.53;;
55292;SDS011;41157;53.560;10.098;2022-11-15T01:20:47;33.27;;;22.20;;
55292;SDS011;41157;53.560;10.098;2022-11-15T01:23:13;32.53;;;21.43;;
55292;SDS011;41157;53.560;10.098;2022-11-15T01:25:40;32.67;;;22.00;;
55292;SDS011;41157;53.560;10.098;2022-11-15T01:28:06;31.67;;;21.70;;
55292;SDS011;41157;53.560;10.098;2022-11-15T01:30:32;30.87;;;22.20;;
55292;SDS011;41157;53.560;10.098;2022-11-15T01:32:57;32.67;;;22.23;;
55292;SDS011;41157;53.560;10.098;2022-11-15T01:35:23;30.50;;;21.37;;
55292;SDS011;41157;53.560;10.098;2022-11-15T01:37:49;33.77;;;22.30;;
55292;SDS011;41157;53.560;10.098;2022-11-15T01:40:15;33.67;;;21.80;;
55292;SDS011;41157;53.560;10.098;2022-11-15T01:42:41;31.90;;;21.93;;
55292;SDS011;41157;53.560;10.098;2022-11-15T01:45:12;33.53;;;22.10;;
55292;SDS011;41157;53.560;10.098;2022-11-15T01:47:40;32.07;;;21.83;;
55292;SDS011;41157;53.560;10.098;2022-11-15T01:50:19;29.33;;;20.70;;
55292;SDS011;41157;53.560;10.098;2022-11-15T01:52:46;36.23;;;22.20;;
55292;SDS011;41157;53.560;10.098;2022-11-15T01:55:22;30.67;;;21.63;;
55292;SDS011;41157;53.560;10.098;2022-11-15T01:57:51;31.83;;;22.33;;
55292;SDS011;41157;53.560;10.098;2022-11-15T02:00:18;29.97;;;21.60;;
55292;SDS011;41157;53.560;10.098;2022-11-15T02:02:44;33.77;;;20.53;;
55292;SDS011;41157;53.560;10.098;2022-11-15T02:05:11;33.23;;;22.17;;
55292;SDS011;41157;53.560;10.098;2022-11-15T02:07:37;30.20;;;20.77;;
55292;SDS011;41157;53.560;10.098;2022-11-15T02:10:10;31.97;;;21.67;;
55292;SDS011;41157;53.560;10.098;2022-11-15T02:12:36;29.80;;;20.13;;
55292;SDS011;41157;53.560;10.098;2022-11-15T02:15:02;30.60;;;21.17;;
55292;SDS011;41157;53.560;10.098;2022-11-15T02:20:20;31.50;;;19.90;;
55292;SDS011;41157;53.560;10.098;2022-11-15T02:22:58;33.03;;;21.97;;
55292;SDS011;41157;53.560;10.098;2022-11-15T02:25:50;31.43;;;20.37;;
55292;SDS011;41157;53.560;10.098;2022-11-15T02:36:07;28.87;;;19.17;;
55292;SDS011;41157;53.560;10.098;2022-11-15T02:38:40;32.50;;;21.60;;
55292;SDS011;41157;53.560;10.098;2022-11-15T02:41:13;32.57;;;20.70;;
55292;SDS011;41157;53.560;10.098;2022-11-15T02:43:43;28.63;;;20.23;;
55292;SDS011;41157;53.560;10.098;2022-11-15T02:46:41;29.07;;;19.83;;
55292;SDS011;41157;53.560;10.098;2022-11-15T02:49:28;29.83;;;20.50;;
55292;SDS011;41157;53.560;10.098;2022-11-15T02:51:54;31.00;;;20.00;;
55292;SDS011;41157;53.560;10.098;2022-11-15T02:54:26;29.37;;;20.37;;
55292;SDS011;41157;53.560;10.098;2022-11-15T02:56:53;31.20;;;20.17;;
55292;SDS011;41157;53.560;10.098;2022-11-15T03:07:06;31.10;;;20.10;;
55292;SDS011;41157;53.560;10.098;2022-11-15T03:09:39;29.43;;;20.40;;
55292;SDS011;41157;53.560;10.098;2022-11-15T03:12:43;27.33;;;19.80;;
55292;SDS011;41157;53.560;10.098;2022-11-15T03:15:01;29.00;;;19.53;;
55292;SDS011;41157;53.560;10.098;2022-11-15T03:17:38;26.93;;;19.13;;
55292;SDS011;41157;53.560;10.098;2022-11-15T03:20:06;32.73;;;19.70;;
55292;SDS011;41157;53.560;10.098;2022-11-15T03:22:35;29.80;;;20.13;;
55292;SDS011;41157;53.560;10.098;2022-11-15T03:25:04;25.77;;;19.43;;
55292;SDS011;41157;53.560;10.098;2022-11-15T03:27:33;30.33;;;19.33;;
55292;SDS011;41157;53.560;10.098;2022-11-15T03:30:02;31.00;;;19.57;;
55292;SDS011;41157;53.560;10.098;2022-11-15T03:32:30;25.43;;;18.37;;
55292;SDS011;41157;53.560;10.098;2022-11-15T03:34:58;26.73;;;19.07;;
55292;SDS011;41157;53.560;10.098;2022-11-15T03:37:50;29.73;;;18.73;;
55292;SDS011;41157;53.560;10.098;2022-11-15T03:40:12;23.47;;;17.20;;
55292;SDS011;41157;53.560;10.098;2022-11-15T03:42:46;26.30;;;17.23;;
55292;SDS011;41157;53.560;10.098;2022-11-15T03:45:15;25.60;;;17.93;;
55292;SDS011;41157;53.560;10.098;2022-11-15T03:47:46;25.20;;;17.20;;
55292;SDS011;41157;53.560;10.098;2022-11-15T03:50:18;24.20;;;17.17;;
55292;SDS011;41157;53.560;10.098;2022-11-15T03:52:44;24.23;;;16.97;;
55292;SDS011;41157;53.560;10.098;2022-11-15T03:55:12;24.63;;;17.17;;
55292;SDS011;41157;53.560;10.098;2022-11-15T03:57:38;26.10;;;18.43;;
55292;SDS011;41157;53.560;10.098;2022-11-15T04:00:05;25.33;;;17.47;;
55292;SDS011;41157;53.560;10.098;2022-11-15T04:02:31;29.73;;;18.17;;
55292;SDS011;41157;53.560;10.098;2022-11-15T04:04:57;26.90;;;17.93;;
55292;SDS011;41157;53.560;10.098;2022-11-15T04:07:22;26.90;;;17.40;;
55292;SDS011;41157;53.560;10.098;2022-11-15T04:09:48;26.70;;;18.73;;
55292;SDS011;41157;53.560;10.098;2022-11-15T04:12:27;26.93;;;17.60;;
55292;SDS011;41157;53.560;10.098;2022-11-15T04:15:00;24.87;;;16.77;;
55292;SDS011;41157;53.560;10.098;2022-11-15T04:17:36;27.53;;;18.47;;
55292;SDS011;41157;53.560;10.098;2022-11-15T04:20:03;23.40;;;16.93;;
55292;SDS011;41157;53.560;10.098;2022-11-15T04:22:48;25.57;;;17.43;;
55292;SDS011;41157;53.560;10.098;2022-11-15T04:25:32;26.23;;;17.83;;
55292;SDS011;41157;53.560;10.098;2022-11-15T04:27:58;24.47;;;16.90;;
55292;SDS011;41157;53.560;10.098;2022-11-15T04:30:24;27.47;;;18.17;;
55292;SDS011;41157;53.560;10.098;2022-11-15T04:32:50;25.80;;;18.20;;
55292;SDS011;41157;53.560;10.098;2022-11-15T04:35:16;26.03;;;17.37;;
55292;SDS011;41157;53.560;10.098;2022-11-15T04:37:42;24.93;;;17.47;;
55292;SDS011;41157;53.560;10.098;2022-11-15T04:40:08;25.47;;;16.90;;
55292;SDS011;41157;53.560;10.098;2022-11-15T04:42:34;26.83;;;17.80;;
55292;SDS011;41157;53.560;10.098;2022-11-15T04:45:00;23.37;;;16.50;;
55292;SDS011;41157;53.560;10.098;2022-11-15T04:47:26;22.57;;;17.00;;
55292;SDS011;41157;53.560;10.098;2022-11-15T04:49:53;22.17;;;16.37;;
55292;SDS011;41157;53.560;10.098;2022-11-15T04:52:18;23.40;;;16.57;;
55292;SDS011;41157;53.560;10.098;2022-11-15T04:54:44;21.83;;;16.33;;
55292;SDS011;41157;53.560;10.098;2022-11-15T04:57:10;19.73;;;15.67;;
55292;SDS011;41157;53.560;10.098;2022-11-15T04:59:36;22.63;;;15.90;;
55292;SDS011;41157;53.560;10.098;2022-11-15T05:02:02;23.73;;;15.73;;
55292;SDS011;41157;53.560;10.098;2022-11-15T05:04:28;21.30;;;14.70;;
55292;SDS011;41157;53.560;10.098;2022-11-15T05:06:54;21.60;;;15.73;;
55292;SDS011;41157;53.560;10.098;2022-11-15T05:09:20;21.63;;;15.30;;
55292;SDS011;41157;53.560;10.098;2022-11-15T05:11:46;20.60;;;15.10;;
55292;SDS011;41157;53.560;10.098;2022-11-15T05:14:13;20.20;;;15.03;;
55292;SDS011;41157;53.560;10.098;2022-11-15T05:16:39;21.13;;;15.20;;
55292;SDS011;41157;53.560;10.098;2022-11-15T05:19:05;19.97;;;15.30;;
55292;SDS011;41157;53.560;10.098;2022-11-15T05:21:31;22.47;;;15.30;;
55292;SDS011;41157;53.560;10.098;2022-11-15T05:23:58;21.67;;;15.60;;
55292;SDS011;41157;53.560;10.098;2022-11-15T05:26:24;21.63;;;15.43;;
55292;SDS011;41157;53.560;10.098;2022-11-15T05:28:56;22.77;;;15.07;;
55292;SDS011;41157;53.560;10.098;2022-11-15T05:31:23;24.30;;;15.50;;
55292;SDS011;41157;53.560;10.098;2022-11-15T05:33:50;21.27;;;14.33;;
55292;SDS011;41157;53.560;10.098;2022-11-15T05:36:21;19.57;;;14.97;;
55292;SDS011;41157;53.560;10.098;2022-11-15T05:38:50;24.10;;;14.67;;
55292;SDS011;41157;53.560;10.098;2022-11-15T05:41:17;20.03;;;14.13;;
55292;SDS011;41157;53.560;10.098;2022-11-15T05:43:43;20.70;;;14.03;;
55292;SDS011;41157;53.560;10.098;2022-11-15T05:46:10;23.83;;;14.53;;
55292;SDS011;41157;53.560;10.098;2022-11-15T05:48:36;19.83;;;15.13;;
55292;SDS011;41157;53.560;10.098;2022-11-15T05:51:03;19.00;;;14.07;;
55292;SDS011;41157;53.560;10.098;2022-11-15T05:53:30;21.67;;;15.50;;
55292;SDS011;41157;53.560;10.098;2022-11-15T05:55:57;22.93;;;14.43;;
55292;SDS011;41157;53.560;10.098;2022-11-15T05:58:23;19.40;;;14.43;;
55292;SDS011;41157;53.560;10.098;2022-11-15T06:00:48;18.60;;;14.07;;
55292;SDS011;41157;53.560;10.098;2022-11-15T06:03:14;19.23;;;14.27;;
55292;SDS011;41157;53.560;10.098;2022-11-15T06:05:40;19.47;;;14.20;;
55292;SDS011;41157;53.560;10.098;2022-11-15T06:08:06;20.07;;;14.47;;
55292;SDS011;41157;53.560;10.098;2022-11-15T06:10:32;21.47;;;14.70;;
55292;SDS011;41157;53.560;10.098;2022-11-15T06:13:02;23.17;;;15.33;;
55292;SDS011;41157;53.560;10.098;2022-11-15T06:15:29;23.93;;;15.87;;
55292;SDS011;41157;53.560;10.098;2022-11-15T06:17:57;19.67;;;14.27;;
55292;SDS011;41157;53.560;10.098;2022-11-15T06:20:24;20.33;;;15.20;;
55292;SDS011;41157;53.560;10.098;2022-11-15T06:22:51;21.03;;;15.37;;
55292;SDS011;41157;53.560;10.098;2022-11-15T06:25:21;25.27;;;15.07;;
55292;SDS011;41157;53.560;10.098;2022-11-15T06:27:51;21.97;;;15.70;;
55292;SDS011;41157;53.560;10.098;2022-11-15T06:30:17;21.60;;;14.50;;
55292;SDS011;41157;53.560;10.098;2022-11-15T06:32:43;23.17;;;14.47;;
55292;SDS011;41157;53.560;10.098;2022-11-15T06:35:09;20.83;;;14.80;;
55292;SDS011;41157;53.560;10.098;2022-11-15T06:37:35;21.23;;;14.67;;
55292;SDS011;41157;53.560;10.098;2022-11-15T06:40:01;19.77;;;14.73;;
55292;SDS011;41157;53.560;10.098;2022-11-15T06:42:27;25.33;;;14.90;;
55292;SDS011;41157;53.560;10.098;2022-11-15T06:44:53;23.10;;;13.90;;
55292;SDS011;41157;53.560;10.098;2022-11-15T06:47:19;19.63;;;14.60;;
55292;SDS011;41157;53.560;10.098;2022-11-15T06:49:45;18.27;;;14.27;;
55292;SDS011;41157;53.560;10.098;2022-11-15T06:52:11;21.20;;;14.90;;
55292;SDS011;41157;53.560;10.098;2022-11-15T06:54:37;19.87;;;14.20;;
55292;SDS011;41157;53.560;10.098;2022-11-15T06:57:04;21.60;;;14.07;;
55292;SDS011;41157;53.560;10.098;2022-11-15T06:59:30;20.93;;;13.50;;
55292;SDS011;41157;53.560;10.098;2022-11-15T07:01:56;21.87;;;15.27;;
55292;SDS011;41157;53.560;10.098;2022-11-15T07:04:22;19.83;;;14.63;;
55292;SDS011;41157;53.560;10.098;2022-11-15T07:06:48;20.47;;;15.30;;
55292;SDS011;41157;53.560;10.098;2022-11-15T07:09:14;20.97;;;14.57;;
55292;SDS011;41157;53.560;10.098;2022-11-15T07:11:40;21.10;;;14.57;;
55292;SDS011;41157;53.560;10.098;2022-11-15T07:14:06;23.87;;;15.80;;
55292;SDS011;41157;53.560;10.098;2022-11-15T07:16:32;21.33;;;14.40;;
55292;SDS011;41157;53.560;10.098;2022-11-15T07:18:58;19.90;;;14.33;;
55292;SDS011;41157;53.560;10.098;2022-11-15T07:21:24;20.23;;;14.37;;
55292;SDS011;41157;53.560;10.098;2022-11-15T07:23:50;22.97;;;14.87;;
55292;SDS011;41157;53.560;10.098;2022-11-15T07:26:16;21.07;;;14.43;;
55292;SDS011;41157;53.560;10.098;2022-11-15T07:28:42;22.40;;;15.30;;
55292;SDS011;41157;53.560;10.098;2022-11-15T07:31:08;22.10;;;15.00;;
55292;SDS011;41157;53.560;10.098;2022-11-15T07:33:35;23.83;;;14.87;;
55292;SDS011;41157;53.560;10.098;2022-11-15T07:36:02;21.80;;;14.83;;
55292;SDS011;41157;53.560;10.098;2022-11-15T07:38:28;20.90;;;14.33;;
55292;SDS011;41157;53.560;10.098;2022-11-15T07:40:55;23.23;;;14.13;;
55292;SDS011;41157;53.560;10.098;2022-11-15T07:43:22;21.97;;;14.77;;
55292;SDS011;41157;53.560;10.098;2022-11-15T07:45:48;19.00;;;14.20;;
55292;SDS011;41157;53.560;10.098;2022-11-15T07:48:14;22.30;;;14.40;;
55292;SDS011;41157;53.560;10.098;2022-11-15T07:50:40;19.83;;;15.23;;
55292;SDS011;41157;53.560;10.098;2022-11-15T07:53:07;20.70;;;15.20;;
55292;SDS011;41157;53.560;10.098;2022-11-15T07:55:34;19.60;;;14.50;;
55292;SDS011;41157;53.560;10.098;2022-11-15T07:58:04;24.60;;;14.47;;
55292;SDS011;41157;53.560;10.098;2022-11-15T08:00:30;22.67;;;15.17;;
55292;SDS011;41157;53.560;10.098;2022-11-15T08:03:10;22.00;;;14.47;;
55292;SDS011;41157;53.560;10.098;2022-11-15T08:05:37;19.73;;;13.90;;
55292;SDS011;41157;53.560;10.098;2022-11-15T08:08:03;22.37;;;14.40;;
55292;SDS011;41157;53.560;10.098;2022-11-15T08:10:30;18.33;;;13.57;;
55292;SDS011;41157;53.560;10.098;2022-11-15T08:12:59;20.03;;;13.83;;
55292;SDS011;41157;53.560;10.098;2022-11-15T08:15:26;19.83;;;14.17;;
55292;SDS011;41157;53.560;10.098;2022-11-15T08:17:55;25.30;;;14.20;;
55292;SDS011;41157;53.560;10.098;2022-11-15T08:20:21;18.97;;;13.90;;
55292;SDS011;41157;53.560;10.098;2022-11-15T08:22:47;20.20;;;14.07;;
55292;SDS011;41157;53.560;10.098;2022-11-15T08:25:13;19.63;;;13.90;;
55292;SDS011;41157;53.560;10.098;2022-11-15T08:27:39;22.67;;;15.40;;
55292;SDS011;41157;53.560;10.098;2022-11-15T08:30:05;19.40;;;13.80;;
55292;SDS011;41157;53.560;10.098;2022-11-15T08:32:31;20.37;;;14.37;;
55292;SDS011;41157;53.560;10.098;2022-11-15T08:34:57;22.33;;;13.87;;
55292;SDS011;41157;53.560;10.098;2022-11-15T08:37:23;25.50;;;14.57;;
55292;SDS011;41157;53.560;10.098;2022-11-15T08:39:49;23.20;;;14.20;;
55292;SDS011;41157;53.560;10.098;2022-11-15T08:42:15;21.57;;;14.57;;
55292;SDS011;41157;53.560;10.098;2022-11-15T08:44:41;21.80;;;14.53;;
55292;SDS011;41157;53.560;10.098;2022-11-15T08:47:09;22.00;;;15.70;;
55292;SDS011;41157;53.560;10.098;2022-11-15T08:49:36;21.73;;;14.73;;
55292;SDS011;41157;53.560;10.098;2022-11-15T08:52:02;24.07;;;14.73;;
55292;SDS011;41157;53.560;10.098;2022-11-15T08:54:28;20.57;;;14.60;;
55292;SDS011;41157;53.560;10.098;2022-11-15T08:56:54;21.23;;;14.60;;
55292;SDS011;41157;53.560;10.098;2022-11-15T08:59:20;20.80;;;14.70;;
55292;SDS011;41157;53.560;10.098;2022-11-15T09:01:47;18.43;;;13.87;;
55292;SDS011;41157;53.560;10.098;2022-11-15T09:04:13;19.73;;;15.10;;
55292;SDS011;41157;53.560;10.098;2022-11-15T09:06:39;21.97;;;15.27;;
55292;SDS011;41157;53.560;10.098;2022-11-15T09:09:05;21.07;;;15.17;;
55292;SDS011;41157;53.560;10.098;2022-11-15T09:11:31;20.53;;;15.10;;
55292;SDS011;41157;53.560;10.098;2022-11-15T09:13:57;21.97;;;15.10;;
55292;SDS011;41157;53.560;10.098;2022-11-15T09:16:23;19.80;;;14.30;;
55292;SDS011;41157;53.560;10.098;2022-11-15T09:18:49;21.03;;;13.70;;
55292;SDS011;41157;53.560;10.098;2022-11-15T09:21:15;18.23;;;13.60;;
55292;SDS011;41157;53.560;10.098;2022-11-15T09:23:41;21.00;;;14.30;;
55292;SDS011;41157;53.560;10.098;2022-11-15T09:26:07;21.00;;;13.30;;
55292;SDS011;41157;53.560;10.098;2022-11-15T09:28:33;27.90;;;14.27;;
55292;SDS011;41157;53.560;10.098;2022-11-15T09:31:00;23.07;;;15.17;;
55292;SDS011;41157;53.560;10.098;2022-11-15T09:33:26;19.30;;;14.03;;
55292;SDS011;41157;53.560;10.098;2022-11-15T09:35:52;20.33;;;13.27;;
55292;SDS011;41157;53.560;10.098;2022-11-15T09:38:19;19.10;;;13.27;;
55292;SDS011;41157;53.560;10.098;2022-11-15T09:40:46;16.60;;;12.77;;
55292;SDS011;41157;53.560;10.098;2022-11-15T09:43:21;19.90;;;13.27;;
55292;SDS011;41157;53.560;10.098;2022-11-15T09:45:56;20.03;;;13.63;;
55292;SDS011;41157;53.560;10.098;2022-11-15T09:51:01;19.27;;;13.77;;
55292;SDS011;41157;53.560;10.098;2022-11-15T09:53:34;18.70;;;12.70;;
55292;SDS011;41157;53.560;10.098;2022-11-15T09:56:03;20.43;;;13.50;;
55292;SDS011;41157;53.560;10.098;2022-11-15T10:00:57;21.23;;;13.93;;
55292;SDS011;41157;53.560;10.098;2022-11-15T10:03:27;16.27;;;13.20;;
55292;SDS011;41157;53.560;10.098;2022-11-15T10:05:56;18.10;;;12.40;;
55292;SDS011;41157;53.560;10.098;2022-11-15T10:08:25;17.70;;;12.87;;
55292;SDS011;41157;53.560;10.098;2022-11-15T10:10:57;17.13;;;11.93;;
55292;SDS011;41157;53.560;10.098;2022-11-15T10:13:25;20.40;;;12.37;;
55292;SDS011;41157;53.560;10.098;2022-11-15T10:15:52;17.87;;;12.87;;
55292;SDS011;41157;53.560;10.098;2022-11-15T10:18:30;17.97;;;11.80;;
55292;SDS011;41157;53.560;10.098;2022-11-15T10:21:06;15.20;;;10.73;;
55292;SDS011;41157;53.560;10.098;2022-11-15T10:23:33;15.87;;;11.63;;
55292;SDS011;41157;53.560;10.098;2022-11-15T10:25:59;14.80;;;10.93;;
55292;SDS011;41157;53.560;10.098;2022-11-15T10:28:27;14.23;;;11.80;;
55292;SDS011;41157;53.560;10.098;2022-11-15T10:30:54;14.67;;;10.80;;
55292;SDS011;41157;53.560;10.098;2022-11-15T10:33:25;13.93;;;10.23;;
55292;SDS011;41157;53.560;10.098;2022-11-15T10:41:14;14.77;;;10.13;;
55292;SDS011;41157;53.560;10.098;2022-11-15T10:43:40;14.60;;;9.77;;
55292;SDS011;41157;53.560;10.098;2022-11-15T10:46:19;13.30;;;9.90;;
55292;SDS011;41157;53.560;10.098;2022-11-15T10:48:45;15.10;;;10.03;;
55292;SDS011;41157;53.560;10.098;2022-11-15T10:51:22;12.37;;;9.20;;
55292;SDS011;41157;53.560;10.098;2022-11-15T10:53:53;14.43;;;9.23;;
55292;SDS011;41157;53.560;10.098;2022-11-15T10:56:20;14.23;;;9.83;;
55292;SDS011;41157;53.560;10.098;2022-11-15T10:58:50;13.33;;;9.47;;
55292;SDS011;41157;53.560;10.098;2022-11-15T11:01:18;10.67;;;8.93;;
55292;SDS011;41157;53.560;10.098;2022-11-15T11:03:45;13.23;;;9.10;;
55292;SDS011;41157;53.560;10.098;2022-11-15T11:06:16;10.90;;;8.80;;
55292;SDS011;41157;53.560;10.098;2022-11-15T11:08:56;13.70;;;9.73;;
55292;SDS011;41157;53.560;10.098;2022-11-15T11:11:22;13.23;;;8.93;;
55292;SDS011;41157;53.560;10.098;2022-11-15T11:13:48;10.60;;;8.27;;
55292;SDS011;41157;53.560;10.098;2022-11-15T11:21:10;13.90;;;9.77;;
55292;SDS011;41157;53.560;10.098;2022-11-15T11:26:40;15.43;;;9.13;;
55292;SDS011;41157;53.560;10.098;2022-11-15T11:29:24;19.47;;;9.47;;
55292;SDS011;41157;53.560;10.098;2022-11-15T11:39:20;11.37;;;9.53;;
55292;SDS011;41157;53.560;10.098;2022-11-15T11:41:53;10.93;;;8.83;;
55292;SDS011;41157;53.560;10.098;2022-11-15T11:44:24;15.23;;;9.60;;
55292;SDS011;41157;53.560;10.098;2022-11-15T11:46:55;13.13;;;9.03;;
55292;SDS011;41157;53.560;10.098;2022-11-15T11:49:33;12.50;;;9.27;;
55292;SDS011;41157;53.560;10.098;2022-11-15T11:52:11;16.80;;;9.83;;
55292;SDS011;41157;53.560;10.098;2022-11-15T11:54:59;14.10;;;9.57;;
55292;SDS011;41157;53.560;10.098;2022-11-15T12:00:19;20.40;;;9.87;;
55292;SDS011;41157;53.560;10.098;2022-11-15T12:05:29;15.67;;;9.10;;
55292;SDS011;41157;53.560;10.098;2022-11-15T12:08:01;13.87;;;9.30;;
55292;SDS011;41157;53.560;10.098;2022-11-15T12:10:29;11.00;;;8.33;;
55292;SDS011;41157;53.560;10.098;2022-11-15T12:12:58;17.30;;;9.23;;
55292;SDS011;41157;53.560;10.098;2022-11-15T12:15:27;12.17;;;8.77;;
55292;SDS011;41157;53.560;10.098;2022-11-15T12:17:55;11.93;;;8.30;;
55292;SDS011;41157;53.560;10.098;2022-11-15T12:20:23;11.97;;;9.13;;
55292;SDS011;41157;53.560;10.098;2022-11-15T12:22:54;11.80;;;8.80;;
55292;SDS011;41157;53.560;10.098;2022-11-15T12:25:29;10.63;;;8.43;;
55292;SDS011;41157;53.560;10.098;2022-11-15T12:27:57;12.47;;;8.20;;
55292;SDS011;41157;53.560;10.098;2022-11-15T12:30:25;10.90;;;8.17;;
55292;SDS011;41157;53.560;10.098;2022-11-15T12:32:59;11.37;;;8.50;;
55292;SDS011;41157;53.560;10.098;2022-11-15T12:35:36;11.67;;;8.30;;
55292;SDS011;41157;53.560;10.098;2022-11-15T12:38:03;13.87;;;8.93;;
55292;SDS011;41157;53.560;10.098;2022-11-15T12:40:33;11.43;;;8.03;;
55292;SDS011;41157;53.560;10.098;2022-11-15T12:45:41;17.57;;;9.33;;
55292;SDS011;41157;53.560;10.098;2022-11-15T12:53:25;11.10;;;8.47;;
55292;SDS011;41157;53.560;10.098;2022-11-15T12:58:28;16.37;;;8.47;;
55292;SDS011;41157;53.560;10.098;2022-11-15T13:04:07;11.93;;;7.90;;
55292;SDS011;41157;53.560;10.098;2022-11-15T13:11:52;11.20;;;7.90;;
55292;SDS011;41157;53.560;10.098;2022-11-15T13:19:42;11.60;;;7.90;;
55292;SDS011;41157;53.560;10.098;2022-11-15T13:22:09;8.87;;;7.67;;
55292;SDS011;41157;53.560;10.098;2022-11-15T13:24:54;11.00;;;8.23;;
55292;SDS011;41157;53.560;10.098;2022-11-15T13:27:20;11.37;;;8.13;;
55292;SDS011;41157;53.560;10.098;2022-11-15T13:29:46;12.47;;;7.50;;
55292;SDS011;41157;53.560;10.098;2022-11-15T13:32:15;11.10;;;7.87;;
55292;SDS011;41157;53.560;10.098;2022-11-15T13:34:49;14.20;;;7.63;;
55292;SDS011;41157;53.560;10.098;2022-11-15T13:39:46;11.97;;;7.70;;
55292;SDS011;41157;53.560;10.098;2022-11-15T13:42:14;10.67;;;7.97;;
55292;SDS011;41157;53.560;10.098;2022-11-15T13:44:40;9.80;;;7.13;;
55292;SDS011;41157;53.560;10.098;2022-11-15T13:47:20;11.07;;;7.80;;
55292;SDS011;41157;53.560;10.098;2022-11-15T13:49:46;12.00;;;7.90;;
55292;SDS011;41157;53.560;10.098;2022-11-15T13:52:13;11.27;;;7.93;;
55292;SDS011;41157;53.560;10.098;2022-11-15T13:54:43;10.87;;;8.00;;
55292;SDS011;41157;53.560;10.098;2022-11-15T13:57:11;10.13;;;7.33;;
55292;SDS011;41157;53.560;10.098;2022-11-15T13:59:45;11.73;;;7.97;;
55292;SDS011;41157;53.560;10.098;2022-11-15T14:02:13;8.27;;;6.97;;
55292;SDS011;41157;53.560;10.098;2022-11-15T14:04:50;9.07;;;7.70;;
55292;SDS011;41157;53.560;10.098;2022-11-15T14:07:17;10.57;;;7.17;;
55292;SDS011;41157;53.560;10.098;2022-11-15T14:09:44;10.67;;;7.60;;
55292;SDS011;41157;53.560;10.098;2022-11-15T14:12:30;8.80;;;7.73;;
55292;SDS011;41157;53.560;10.098;2022-11-15T14:14:57;15.00;;;7.97;;
55292;SDS011;41157;53.560;10.098;2022-11-15T14:19:56;12.13;;;7.37;;
55292;SDS011;41157;53.560;10.098;2022-11-15T14:22:23;9.07;;;7.20;;
55292;SDS011;41157;53.560;10.098;2022-11-15T14:27:31;10.47;;;8.40;;
55292;SDS011;41157;53.560;10.098;2022-11-15T14:29:57;11.37;;;7.73;;
55292;SDS011;41157;53.560;10.098;2022-11-15T14:32:45;12.50;;;7.67;;
55292;SDS011;41157;53.560;10.098;2022-11-15T14:35:12;13.00;;;8.00;;
55292;SDS011;41157;53.560;10.098;2022-11-15T14:37:39;14.17;;;7.47;;
55292;SDS011;41157;53.560;10.098;2022-11-15T14:40:05;11.27;;;8.10;;
55292;SDS011;41157;53.560;10.098;2022-11-15T14:42:31;10.77;;;7.27;;
55292;SDS011;41157;53.560;10.098;2022-11-15T14:44:57;9.00;;;7.13;;
55292;SDS011;41157;53.560;10.098;2022-11-15T14:47:23;9.97;;;7.83;;
55292;SDS011;41157;53.560;10.098;2022-11-15T14:49:49;9.83;;;8.17;;
55292;SDS011;41157;53.560;10.098;2022-11-15T14:54:50;9.53;;;7.97;;
55292;SDS011;41157;53.560;10.098;2022-11-15T14:57:16;11.27;;;7.67;;
55292;SDS011;41157;53.560;10.098;2022-11-15T14:59:42;7.83;;;7.03;;
55292;SDS011;41157;53.560;10.098;2022-11-15T15:02:42;11.60;;;7.97;;
55292;SDS011;41157;53.560;10.098;2022-11-15T15:05:01;11.67;;;8.50;;
55292;SDS011;41157;53.560;10.098;2022-11-15T15:07:28;9.93;;;8.20;;
55292;SDS011;41157;53.560;10.098;2022-11-15T15:09:54;10.60;;;8.03;;
55292;SDS011;41157;53.560;10.098;2022-11-15T15:12:20;13.33;;;8.60;;
55292;SDS011;41157;53.560;10.098;2022-11-15T15:14:47;13.17;;;8.53;;
55292;SDS011;41157;53.560;10.098;2022-11-15T15:17:14;11.27;;;7.80;;
55292;SDS011;41157;53.560;10.098;2022-11-15T15:19:40;11.63;;;8.43;;
55292;SDS011;41157;53.560;10.098;2022-11-15T15:22:09;9.50;;;7.70;;
55292;SDS011;41157;53.560;10.098;2022-11-15T15:24:36;10.13;;;7.47;;
55292;SDS011;41157;53.560;10.098;2022-11-15T15:27:04;12.27;;;7.33;;
55292;SDS011;41157;53.560;10.098;2022-11-15T15:29:30;12.07;;;7.47;;
55292;SDS011;41157;53.560;10.098;2022-11-15T15:31:56;11.80;;;8.03;;
55292;SDS011;41157;53.560;10.098;2022-11-15T15:34:22;9.43;;;7.63;;
55292;SDS011;41157;53.560;10.098;2022-11-15T15:36:48;10.10;;;8.17;;
55292;SDS011;41157;53.560;10.098;2022-11-15T15:39:14;13.70;;;8.73;;
55292;SDS011;41157;53.560;10.098;2022-11-15T15:41:40;10.00;;;7.63;;
55292;SDS011;41157;53.560;10.098;2022-11-15T15:44:06;12.13;;;7.97;;